Time;durP1;ratioP1;P1;durP2;ratioP2;P2;SDS_P1;SDS_P2;PMS_P1;PMS_P2;Temp;Humidity;BMP_temperature;BMP_pressure;BME280_temperature;BME280_humidity;BME280_pressure;Samples;Min_cycle;Max_cycle;Signal;HPM_P1;HPM_P2
2022/02/27 17:57:55;;;;;;;;;;;7.70;92.40;;;;;;5086224;22;20499;-79
2022/02/27 18:00:26;;;;;;;;;;;7.50;92.90;;;;;;5092788;28;19924;-79
2022/02/27 18:02:56;;;;;;;;;;;7.40;92.80;;;;;;5068023;28;19920;-80
2022/02/27 18:05:29;;;;;;;;;;;7.40;93.00;;;;;;5092866;28;19924;-81
2022/02/27 18:08:00;;;;;;;;;;;7.30;92.90;;;;;;5109268;28;19928;-79
2022/02/27 18:10:32;;;;;;;;;;;7.30;93.50;;;;;;5066079;28;19935;-79
2022/02/27 18:13:02;;;;;;;;;;;7.30;94.00;;;;;;5060266;28;20464;-79
2022/02/27 18:15:32;;;;;;;;;;;7.10;94.00;;;;;;5091724;28;19935;-79
2022/02/27 18:18:01;;;;;;;;;;;7.10;93.90;;;;;;5075451;28;19944;-78
2022/02/27 18:20:30;;;;;;;;;;;7.10;94.10;;;;;;5082209;28;20373;-79
2022/02/27 18:23:00;;;;;;;;;;;7.00;93.90;;;;;;5075685;28;19930;-78
2022/02/27 18:25:33;;;;;;;;;;;7.30;94.60;;;;;;5062552;28;19940;-80
2022/02/27 18:28:09;;;;;;;;;;;6.90;94.10;;;;;;5089870;28;19929;-79
2022/02/27 18:30:44;;;;;;;;;;;7.10;94.30;;;;;;5047360;28;20084;-80
2022/02/27 18:33:21;;;;;;;;;;;6.80;94.50;;;;;;5081896;28;19932;-80
2022/02/27 18:35:52;;;;;;;;;;;6.80;94.60;;;;;;5079330;28;19935;-79
2022/02/27 18:38:22;;;;;;;;;;;6.70;94.70;;;;;;5080961;28;19932;-83
2022/02/27 18:40:52;;;;;;;;;;;6.70;94.90;;;;;;5110132;28;19946;-82
2022/02/27 18:43:29;;;;;;;;;;;6.60;94.70;;;;;;5086335;28;19932;-80
2022/02/27 18:46:01;;;;;;;;;;;6.60;94.70;;;;;;5098654;28;19928;-79
2022/02/27 18:48:37;;;;;;;;;;;8.20;95.70;;;;;;5113096;28;19932;-79
2022/02/27 18:51:12;;;;;;;;;;;7.10;95.20;;;;;;5111940;28;19938;-80
2022/02/27 18:53:49;;;;;;;;;;;6.50;95.70;;;;;;5072059;28;19938;-82
2022/02/27 18:56:23;;;;;;;;;;;6.40;96.20;;;;;;5080142;28;19947;-80
2022/02/27 18:58:55;;;;;;;;;;;6.40;96.00;;;;;;5092621;28;19925;-81
2022/02/27 19:01:25;;;;;;;;;;;6.30;96.50;;;;;;5092017;28;19932;-78
2022/02/27 19:03:58;;;;;;;;;;;6.50;97.00;;;;;;5097316;28;19924;-79
2022/02/27 19:06:26;;;;;;;;;;;6.30;96.60;;;;;;5078725;28;19942;-81
2022/02/27 19:08:55;;;;;;;;;;;5.50;96.90;;;;;;5071148;28;19934;-80
2022/02/27 19:11:23;;;;;;;;;;;6.30;96.90;;;;;;5061134;28;19924;-82
2022/02/27 19:13:51;;;;;;;;;;;6.20;97.00;;;;;;5071693;28;19928;-79
2022/02/27 19:16:20;;;;;;;;;;;6.20;97.30;;;;;;5092542;28;19939;-80
2022/02/27 19:18:50;;;;;;;;;;;6.10;97.60;;;;;;5089707;28;19947;-80
2022/02/27 19:21:18;;;;;;;;;;;6.00;97.30;;;;;;5076281;28;19928;-80
2022/02/27 19:23:46;;;;;;;;;;;6.20;98.70;;;;;;5090793;28;19935;-80
2022/02/27 19:26:13;;;;;;;;;;;6.20;97.90;;;;;;5039368;28;19931;-81
2022/02/27 19:28:42;;;;;;;;;;;6.10;97.50;;;;;;5048471;28;19939;-79
2022/02/27 19:31:10;;;;;;;;;;;6.10;98.80;;;;;;5094927;28;19931;-79
2022/02/27 19:33:41;;;;;;;;;;;6.10;98.60;;;;;;5060486;28;19928;-79
2022/02/27 19:36:10;;;;;;;;;;;5.20;98.20;;;;;;5095334;28;19927;-79
2022/02/27 19:38:41;;;;;;;;;;;6.10;98.40;;;;;;5092784;28;19928;-80
2022/02/27 19:41:11;;;;;;;;;;;6.10;98.50;;;;;;5050222;28;19935;-81
2022/02/27 19:43:45;;;;;;;;;;;6.10;98.40;;;;;;5093532;28;19939;-79
2022/02/27 19:46:13;;;;;;;;;;;6.10;98.80;;;;;;5081467;28;19924;-81
2022/02/27 19:48:43;;;;;;;;;;;6.10;98.80;;;;;;5093121;28;19938;-77
2022/02/27 19:51:11;;;;;;;;;;;6.10;99.10;;;;;;5089137;28;19940;-78
2022/02/27 19:53:39;;;;;;;;;;;6.10;99.70;;;;;;5094697;28;19932;-78
2022/02/27 19:56:07;;;;;;;;;;;6.10;98.90;;;;;;5062096;28;19924;-79
2022/02/27 19:58:37;;;;;;;;;;;6.20;99.50;;;;;;5094752;28;19932;-79
2022/02/27 20:01:04;;;;;;;;;;;6.20;99.50;;;;;;5110508;28;20377;-80
2022/02/27 20:03:32;;;;;;;;;;;6.10;99.50;;;;;;5091812;28;19924;-81
2022/02/27 20:06:00;;;;;;;;;;;6.20;99.60;;;;;;5099861;28;19924;-79
2022/02/27 20:08:29;;;;;;;;;;;6.10;99.50;;;;;;5063870;28;20377;-81
2022/02/27 20:10:57;;;;;;;;;;;6.20;99.50;;;;;;5077170;28;19928;-80
2022/02/27 20:13:47;;;;;;;;;;;6.20;99.30;;;;;;5111862;28;20178;-80
2022/02/27 20:16:16;;;;;;;;;;;7.50;99.90;;;;;;5109395;28;19932;-80
2022/02/27 20:18:45;;;;;;;;;;;6.20;99.60;;;;;;5111656;28;19953;-79
2022/02/27 20:21:14;;;;;;;;;;;6.10;99.90;;;;;;5068466;28;20439;-78
2022/02/27 20:23:43;;;;;;;;;;;6.30;99.90;;;;;;5113241;28;20419;-79
2022/02/27 20:26:12;;;;;;;;;;;6.10;99.90;;;;;;5121380;28;19936;-79
2022/02/27 20:28:42;;;;;;;;;;;6.10;99.90;;;;;;5086030;28;19928;-79
2022/02/27 20:31:14;;;;;;;;;;;6.10;99.90;;;;;;5122111;28;19935;-79
2022/02/27 20:33:44;;;;;;;;;;;6.10;99.80;;;;;;5107222;28;19924;-79
2022/02/27 20:36:13;;;;;;;;;;;6.10;99.90;;;;;;5093889;28;19928;-77
2022/02/27 20:38:41;;;;;;;;;;;6.00;99.90;;;;;;5122168;28;19928;-79
2022/02/27 20:41:09;;;;;;;;;;;6.00;99.90;;;;;;5105265;28;19932;-79
2022/02/27 20:43:37;;;;;;;;;;;6.00;99.90;;;;;;5114851;28;20331;-79
2022/02/27 20:46:07;;;;;;;;;;;6.00;99.90;;;;;;5081620;28;19928;-79
2022/02/27 20:48:39;;;;;;;;;;;6.00;99.90;;;;;;5111635;28;19938;-79
2022/02/27 20:51:10;;;;;;;;;;;6.00;99.90;;;;;;5096918;28;20293;-78
2022/02/27 20:53:41;;;;;;;;;;;5.90;99.90;;;;;;5075919;28;20367;-79
2022/02/27 20:56:10;;;;;;;;;;;5.90;99.90;;;;;;5109538;28;19931;-78
2022/02/27 20:58:41;;;;;;;;;;;5.90;99.90;;;;;;5061091;28;19932;-79
2022/02/27 21:01:14;;;;;;;;;;;5.80;99.90;;;;;;5066956;28;19939;-80
2022/02/27 21:03:43;;;;;;;;;;;5.80;99.90;;;;;;5064614;28;19939;-79
2022/02/27 21:06:11;;;;;;;;;;;5.90;99.90;;;;;;5069347;28;19939;-79
2022/02/27 21:08:46;;;;;;;;;;;5.90;99.90;;;;;;5087421;28;19933;-80
2022/02/27 21:11:18;;;;;;;;;;;6.10;99.90;;;;;;5047369;28;19932;-81
2022/02/27 21:13:51;;;;;;;;;;;5.70;99.90;;;;;;5066243;28;19925;-81
2022/02/27 21:16:21;;;;;;;;;;;5.70;99.90;;;;;;5049532;28;19928;-78
2022/02/27 21:18:52;;;;;;;;;;;5.80;99.90;;;;;;5092268;28;19924;-80
2022/02/27 21:21:22;;;;;;;;;;;5.70;99.90;;;;;;5064688;28;20078;-79
2022/02/27 21:23:53;;;;;;;;;;;5.80;99.90;;;;;;5072850;28;19931;-78
2022/02/27 21:26:23;;;;;;;;;;;5.80;99.90;;;;;;5088910;28;19924;-79
2022/02/27 21:28:52;;;;;;;;;;;5.60;99.90;;;;;;5088098;28;19932;-79
2022/02/27 21:31:21;;;;;;;;;;;5.50;99.90;;;;;;5074848;28;20217;-80
2022/02/27 21:33:53;;;;;;;;;;;5.60;99.90;;;;;;5062371;28;19931;-79
2022/02/27 21:36:23;;;;;;;;;;;5.50;99.90;;;;;;5073003;28;19932;-79
2022/02/27 21:38:51;;;;;;;;;;;5.50;99.90;;;;;;5049992;28;19924;-80
2022/02/27 21:41:21;;;;;;;;;;;5.50;99.90;;;;;;5081060;28;20349;-79
2022/02/27 21:43:50;;;;;;;;;;;4.90;99.90;;;;;;5062434;28;19929;-80
2022/02/27 21:46:39;;;;;;;;;;;5.60;99.90;;;;;;5062150;28;19935;-81
2022/02/27 21:49:07;;;;;;;;;;;5.40;99.90;;;;;;5072123;28;20182;-81
2022/02/27 21:51:37;;;;;;;;;;;5.40;99.90;;;;;;5089275;28;20557;-79
2022/02/27 21:54:06;;;;;;;;;;;5.40;99.90;;;;;;5090884;28;19925;-79
2022/02/27 21:56:36;;;;;;;;;;;5.40;99.90;;;;;;5075231;28;19939;-80
2022/02/27 21:59:05;;;;;;;;;;;5.40;99.90;;;;;;5093731;28;19932;-79
2022/02/27 22:01:34;;;;;;;;;;;5.30;99.90;;;;;;5110016;28;19924;-81
2022/02/27 22:04:03;;;;;;;;;;;5.30;99.90;;;;;;5082666;28;19936;-79
2022/02/27 22:06:33;;;;;;;;;;;5.30;99.90;;;;;;5109709;28;19932;-82
2022/02/27 22:09:05;;;;;;;;;;;5.30;99.90;;;;;;5083633;28;19927;-80
2022/02/27 22:11:34;;;;;;;;;;;4.10;99.90;;;;;;5124728;28;20118;-80
2022/02/27 22:14:03;;;;;;;;;;;5.90;99.90;;;;;;5095541;28;19939;-81
2022/02/27 22:16:32;;;;;;;;;;;5.20;99.90;;;;;;5100694;28;19931;-80
2022/02/27 22:19:05;;;;;;;;;;;5.30;99.90;;;;;;5080943;28;20100;-82
2022/02/27 22:21:35;;;;;;;;;;;5.00;99.90;;;;;;5097392;28;19924;-80
2022/02/27 22:24:04;;;;;;;;;;;6.70;99.90;;;;;;5083114;28;19934;-80
2022/02/27 22:26:33;;;;;;;;;;;4.90;99.90;;;;;;5095261;28;19938;-81
2022/02/27 22:29:03;;;;;;;;;;;5.30;99.90;;;;;;5087124;28;19931;-80
2022/02/27 22:31:36;;;;;;;;;;;4.90;99.90;;;;;;5092984;28;19932;-79
2022/02/27 22:34:07;;;;;;;;;;;5.00;99.90;;;;;;5088163;28;19931;-83
2022/02/27 22:36:41;;;;;;;;;;;5.00;99.90;;;;;;5113222;28;19924;-79
2022/02/27 22:39:11;;;;;;;;;;;4.90;99.90;;;;;;5093482;28;20276;-81
2022/02/27 22:41:41;;;;;;;;;;;4.90;99.90;;;;;;5077151;28;19932;-79
2022/02/27 22:44:10;;;;;;;;;;;4.90;99.90;;;;;;5107923;28;19932;-80
2022/02/27 22:46:40;;;;;;;;;;;4.90;99.90;;;;;;5105858;28;19942;-80
2022/02/27 22:49:11;;;;;;;;;;;4.90;99.90;;;;;;5111891;28;19923;-79
2022/02/27 22:51:40;;;;;;;;;;;4.90;99.90;;;;;;5085688;28;19928;-83
2022/02/27 22:54:14;;;;;;;;;;;5.10;99.90;;;;;;5116360;28;20106;-80
2022/02/27 22:56:46;;;;;;;;;;;5.10;99.90;;;;;;5080374;28;20414;-79
2022/02/27 22:59:25;;;;;;;;;;;5.00;99.90;;;;;;5096786;28;19935;-80
2022/02/27 23:01:56;;;;;;;;;;;4.80;99.90;;;;;;5093344;28;19939;-81
2022/02/27 23:08:27;;;;;;;;;;;5.60;99.90;;;;;;5081991;28;19928;-79
2022/02/27 23:10:37;;;;;;;;;;;4.60;99.90;;;;;;5080070;28;20004;-83
2022/02/27 23:13:33;;;;;;;;;;;5.20;99.90;;;;;;4739811;28;10000116;-83
2022/02/27 23:16:16;;;;;;;;;;;5.40;99.90;;;;;;5069923;28;19925;-81
2022/02/27 23:18:45;;;;;;;;;;;5.70;99.90;;;;;;5096042;28;19935;-80
2022/02/27 23:21:18;;;;;;;;;;;5.40;99.90;;;;;;5062498;28;19939;-79
2022/02/27 23:24:08;;;;;;;;;;;5.40;99.90;;;;;;5085510;28;19928;-79
2022/02/27 23:27:02;;;;;;;;;;;5.30;99.90;;;;;;5076079;28;19928;-79
2022/02/27 23:29:32;;;;;;;;;;;5.60;99.90;;;;;;5095548;28;19920;-80
2022/02/27 23:32:04;;;;;;;;;;;5.20;99.90;;;;;;5083410;28;19935;-80
2022/02/27 23:34:37;;;;;;;;;;;5.10;99.90;;;;;;5079352;28;19925;-80
2022/02/27 23:37:06;;;;;;;;;;;6.40;99.90;;;;;;5086751;28;19924;-85
2022/02/27 23:39:35;;;;;;;;;;;5.20;99.90;;;;;;5070359;28;19934;-79
2022/02/27 23:42:03;;;;;;;;;;;5.10;99.90;;;;;;5089440;28;19943;-83
2022/02/27 23:44:30;;;;;;;;;;;6.10;99.90;;;;;;5071845;28;19925;-81
2022/02/27 23:47:00;;;;;;;;;;;5.20;99.90;;;;;;5073746;28;19924;-80
2022/02/27 23:49:28;;;;;;;;;;;5.10;99.90;;;;;;5070252;28;19939;-80
2022/02/27 23:51:56;;;;;;;;;;;5.20;99.90;;;;;;5085815;28;19935;-81
2022/02/27 23:54:24;;;;;;;;;;;5.10;99.90;;;;;;5078876;28;19939;-79
2022/02/27 23:56:52;;;;;;;;;;;5.10;99.90;;;;;;5047937;28;20113;-79
2022/02/27 23:59:19;;;;;;;;;;;5.00;99.90;;;;;;5076859;28;19928;-80
